KRIV

March ARB Airport

Riverside, California, USA
METAR KRIV 162058Z AUTO 00000KT 10SM CLR 22/M04 A3010 RMK AO2 SLP191 T02151038 57021
Observed Flight Rules
Dec-16 @ 20:58 UTC (an hour ago) Visual Flight Rules
Visibility Clouds
10 miles
  • Clear skies
Temperatures Readings
Current 22°C / 72°F
Dewpoint -4°C / 25°F
Humidity 17%
Altimeter 30.1" Hg
Pressure 1019.1 hPa
Elevation 469
METAR KRIV 162058Z AUTO 00000KT 10SM CLR 22/M04 A3010 RMK AO2 SLP191 T02151038 57021
Observed Flight Rules
Dec-16 @ 20:58 UTC
(an hour ago)
VFR
Clouds
  • Clear skies
Temperature Dewpoint
22°C / 72°F -4°C / 25°F
Humidity Altimeter Pressure
17% 30.1" Hg 1019.1 hPa